sensor_id;sensor_type;location;lat;lon;timestamp;temperature;humidity
34434;DHT22;34290;48.562;13.384;2022-11-21T00:02:15;2.90;99.90
34434;DHT22;34290;48.562;13.384;2022-11-21T00:04:42;2.90;99.90
34434;DHT22;34290;48.562;13.384;2022-11-21T00:07:10;3.00;99.90
34434;DHT22;34290;48.562;13.384;2022-11-21T00:09:37;3.00;99.90
34434;DHT22;34290;48.562;13.384;2022-11-21T00:12:05;3.00;99.90
34434;DHT22;34290;48.562;13.384;2022-11-21T00:14:33;3.00;99.90
34434;DHT22;34290;48.562;13.384;2022-11-21T00:16:59;3.00;99.90
34434;DHT22;34290;48.562;13.384;2022-11-21T00:19:26;3.10;99.90
34434;DHT22;34290;48.562;13.384;2022-11-21T00:24:22;3.10;99.90
34434;DHT22;34290;48.562;13.384;2022-11-21T00:26:49;3.20;99.90
34434;DHT22;34290;48.562;13.384;2022-11-21T00:31:43;3.20;99.90
34434;DHT22;34290;48.562;13.384;2022-11-21T00:34:10;3.30;99.90
34434;DHT22;34290;48.562;13.384;2022-11-21T00:36:39;3.20;99.90
34434;DHT22;34290;48.562;13.384;2022-11-21T00:39:06;3.30;99.90
34434;DHT22;34290;48.562;13.384;2022-11-21T00:41:37;3.40;99.90
34434;DHT22;34290;48.562;13.384;2022-11-21T00:44:05;3.40;99.90
34434;DHT22;34290;48.562;13.384;2022-11-21T00:46:32;3.40;99.90
34434;DHT22;34290;48.562;13.384;2022-11-21T00:48:59;3.40;99.90
34434;DHT22;34290;48.562;13.384;2022-11-21T00:51:35;3.40;99.90
34434;DHT22;34290;48.562;13.384;2022-11-21T00:54:02;3.40;99.90
34434;DHT22;34290;48.562;13.384;2022-11-21T00:58:58;3.40;99.90
34434;DHT22;34290;48.562;13.384;2022-11-21T01:01:25;3.40;99.90
34434;DHT22;34290;48.562;13.384;2022-11-21T01:03:52;3.40;99.90
34434;DHT22;34290;48.562;13.384;2022-11-21T01:06:19;0.30;99.90
34434;DHT22;34290;48.562;13.384;2022-11-21T01:08:46;3.50;99.90
34434;DHT22;34290;48.562;13.384;2022-11-21T01:11:14;3.50;99.90
34434;DHT22;34290;48.562;13.384;2022-11-21T01:13:42;3.50;99.90
34434;DHT22;34290;48.562;13.384;2022-11-21T01:16:13;3.50;99.90
34434;DHT22;34290;48.562;13.384;2022-11-21T01:18:40;3.50;99.90
34434;DHT22;34290;48.562;13.384;2022-11-21T01:21:12;3.50;99.90
34434;DHT22;34290;48.562;13.384;2022-11-21T01:23:39;3.50;99.90
34434;DHT22;34290;48.562;13.384;2022-11-21T01:26:08;3.50;99.90
34434;DHT22;34290;48.562;13.384;2022-11-21T01:28:37;3.50;99.90
34434;DHT22;34290;48.562;13.384;2022-11-21T01:31:05;3.50;99.90
34434;DHT22;34290;48.562;13.384;2022-11-21T01:33:34;3.50;99.90
34434;DHT22;34290;48.562;13.384;2022-11-21T01:36:06;3.40;99.90
34434;DHT22;34290;48.562;13.384;2022-11-21T01:38:33;3.40;99.90
34434;DHT22;34290;48.562;13.384;2022-11-21T01:41:00;3.50;99.90
34434;DHT22;34290;48.562;13.384;2022-11-21T01:43:27;3.50;99.90
34434;DHT22;34290;48.562;13.384;2022-11-21T01:45:56;3.50;99.90
34434;DHT22;34290;48.562;13.384;2022-11-21T01:48:27;3.40;99.90
34434;DHT22;34290;48.562;13.384;2022-11-21T01:50:59;3.50;99.90
34434;DHT22;34290;48.562;13.384;2022-11-21T01:53:28;3.50;99.90
34434;DHT22;34290;48.562;13.384;2022-11-21T01:58:22;3.40;99.90
34434;DHT22;34290;48.562;13.384;2022-11-21T02:00:52;3.40;99.90
34434;DHT22;34290;48.562;13.384;2022-11-21T02:03:24;3.40;99.90
34434;DHT22;34290;48.562;13.384;2022-11-21T02:05:53;3.40;99.90
34434;DHT22;34290;48.562;13.384;2022-11-21T02:08:23;3.40;99.90
34434;DHT22;34290;48.562;13.384;2022-11-21T02:10:59;3.50;99.90
34434;DHT22;34290;48.562;13.384;2022-11-21T02:13:29;3.50;99.90
34434;DHT22;34290;48.562;13.384;2022-11-21T02:15:56;3.50;99.90
34434;DHT22;34290;48.562;13.384;2022-11-21T02:18:24;3.50;99.90
34434;DHT22;34290;48.562;13.384;2022-11-21T02:20:57;3.50;99.90
34434;DHT22;34290;48.562;13.384;2022-11-21T02:23:32;3.50;99.90
34434;DHT22;34290;48.562;13.384;2022-11-21T02:26:03;3.60;99.90
34434;DHT22;34290;48.562;13.384;2022-11-21T02:28:30;3.60;99.90
34434;DHT22;34290;48.562;13.384;2022-11-21T02:30:57;3.60;99.90
34434;DHT22;34290;48.562;13.384;2022-11-21T02:33:24;3.60;99.90
34434;DHT22;34290;48.562;13.384;2022-11-21T02:35:58;3.70;99.90
34434;DHT22;34290;48.562;13.384;2022-11-21T02:38:28;3.70;99.90
34434;DHT22;34290;48.562;13.384;2022-11-21T02:41:01;3.70;99.90
34434;DHT22;34290;48.562;13.384;2022-11-21T02:43:37;3.70;99.90
34434;DHT22;34290;48.562;13.384;2022-11-21T02:46:05;3.70;99.90
34434;DHT22;34290;48.562;13.384;2022-11-21T02:48:32;3.80;99.90
34434;DHT22;34290;48.562;13.384;2022-11-21T02:50:59;3.80;99.90
34434;DHT22;34290;48.562;13.384;2022-11-21T02:53:30;3.90;99.90
34434;DHT22;34290;48.562;13.384;2022-11-21T02:55:57;3.80;99.90
34434;DHT22;34290;48.562;13.384;2022-11-21T02:58:24;3.80;99.90
34434;DHT22;34290;48.562;13.384;2022-11-21T03:00:58;3.80;99.90
34434;DHT22;34290;48.562;13.384;2022-11-21T03:03:25;3.80;99.90
34434;DHT22;34290;48.562;13.384;2022-11-21T03:05:52;3.80;99.90
34434;DHT22;34290;48.562;13.384;2022-11-21T03:08:19;3.80;99.90
34434;DHT22;34290;48.562;13.384;2022-11-21T03:13:13;3.70;99.90
34434;DHT22;34290;48.562;13.384;2022-11-21T03:15:40;3.60;99.90
34434;DHT22;34290;48.562;13.384;2022-11-21T03:18:09;3.60;99.90
34434;DHT22;34290;48.562;13.384;2022-11-21T03:20:36;3.40;99.90
34434;DHT22;34290;48.562;13.384;2022-11-21T03:23:03;3.50;99.90
34434;DHT22;34290;48.562;13.384;2022-11-21T03:25:30;3.50;99.90
34434;DHT22;34290;48.562;13.384;2022-11-21T03:30:25;3.20;99.90
34434;DHT22;34290;48.562;13.384;2022-11-21T03:32:54;3.20;99.90
34434;DHT22;34290;48.562;13.384;2022-11-21T03:35:23;3.20;99.90
34434;DHT22;34290;48.562;13.384;2022-11-21T03:45:11;2.90;99.90
34434;DHT22;34290;48.562;13.384;2022-11-21T03:47:38;2.90;99.90
34434;DHT22;34290;48.562;13.384;2022-11-21T03:50:10;2.80;99.90
34434;DHT22;34290;48.562;13.384;2022-11-21T03:52:41;2.80;99.90
34434;DHT22;34290;48.562;13.384;2022-11-21T03:55:11;2.80;99.90
34434;DHT22;34290;48.562;13.384;2022-11-21T03:57:39;2.80;99.90
34434;DHT22;34290;48.562;13.384;2022-11-21T04:00:07;2.80;99.90
34434;DHT22;34290;48.562;13.384;2022-11-21T04:02:35;2.80;99.90
34434;DHT22;34290;48.562;13.384;2022-11-21T04:07:29;2.70;99.90
34434;DHT22;34290;48.562;13.384;2022-11-21T04:09:57;2.70;99.90
34434;DHT22;34290;48.562;13.384;2022-11-21T04:12:24;2.60;99.90
34434;DHT22;34290;48.562;13.384;2022-11-21T04:17:27;2.60;99.90
34434;DHT22;34290;48.562;13.384;2022-11-21T04:19:56;2.50;99.90
34434;DHT22;34290;48.562;13.384;2022-11-21T04:24:50;2.50;99.90
34434;DHT22;34290;48.562;13.384;2022-11-21T04:27:18;2.50;99.90
34434;DHT22;34290;48.562;13.384;2022-11-21T04:29:45;2.50;99.90
34434;DHT22;34290;48.562;13.384;2022-11-21T04:32:12;2.50;99.90
34434;DHT22;34290;48.562;13.384;2022-11-21T04:34:39;2.50;99.90
34434;DHT22;34290;48.562;13.384;2022-11-21T04:37:06;2.50;99.90
34434;DHT22;34290;48.562;13.384;2022-11-21T04:42:01;2.60;99.90
34434;DHT22;34290;48.562;13.384;2022-11-21T04:44:31;2.70;99.90
34434;DHT22;34290;48.562;13.384;2022-11-21T04:46:58;2.80;99.90
34434;DHT22;34290;48.562;13.384;2022-11-21T04:49:25;2.70;99.90
34434;DHT22;34290;48.562;13.384;2022-11-21T04:51:52;2.70;99.90
34434;DHT22;34290;48.562;13.384;2022-11-21T04:59:17;2.60;99.90
34434;DHT22;34290;48.562;13.384;2022-11-21T05:01:45;2.50;99.90
34434;DHT22;34290;48.562;13.384;2022-11-21T05:04:12;2.50;99.90
34434;DHT22;34290;48.562;13.384;2022-11-21T05:06:39;2.40;99.90
34434;DHT22;34290;48.562;13.384;2022-11-21T05:09:06;2.40;99.90
34434;DHT22;34290;48.562;13.384;2022-11-21T05:11:33;2.20;99.90
34434;DHT22;34290;48.562;13.384;2022-11-21T05:14:18;2.20;99.90
34434;DHT22;34290;48.562;13.384;2022-11-21T05:16:46;2.30;99.90
34434;DHT22;34290;48.562;13.384;2022-11-21T05:19:13;2.40;99.90
34434;DHT22;34290;48.562;13.384;2022-11-21T05:21:43;2.40;99.90
34434;DHT22;34290;48.562;13.384;2022-11-21T05:24:10;2.40;99.90
34434;DHT22;34290;48.562;13.384;2022-11-21T05:26:37;2.40;99.90
34434;DHT22;34290;48.562;13.384;2022-11-21T05:29:04;2.50;99.90
34434;DHT22;34290;48.562;13.384;2022-11-21T05:31:31;2.50;99.90
34434;DHT22;34290;48.562;13.384;2022-11-21T05:34:00;2.50;99.90
34434;DHT22;34290;48.562;13.384;2022-11-21T05:36:27;2.50;99.90
34434;DHT22;34290;48.562;13.384;2022-11-21T05:38:54;2.50;99.90
34434;DHT22;34290;48.562;13.384;2022-11-21T05:41:21;2.50;99.90
34434;DHT22;34290;48.562;13.384;2022-11-21T05:43:48;2.50;99.90
34434;DHT22;34290;48.562;13.384;2022-11-21T05:46:20;2.50;99.90
34434;DHT22;34290;48.562;13.384;2022-11-21T05:48:48;2.50;99.90
34434;DHT22;34290;48.562;13.384;2022-11-21T05:51:17;2.50;99.90
34434;DHT22;34290;48.562;13.384;2022-11-21T05:53:47;2.60;99.90
34434;DHT22;34290;48.562;13.384;2022-11-21T05:56:16;2.60;99.90
34434;DHT22;34290;48.562;13.384;2022-11-21T05:58:44;2.60;99.90
34434;DHT22;34290;48.562;13.384;2022-11-21T06:01:12;2.70;99.90
34434;DHT22;34290;48.562;13.384;2022-11-21T06:03:41;2.70;99.90
34434;DHT22;34290;48.562;13.384;2022-11-21T06:06:08;2.60;99.90
34434;DHT22;34290;48.562;13.384;2022-11-21T06:08:38;2.70;99.90
34434;DHT22;34290;48.562;13.384;2022-11-21T06:11:06;2.70;99.90
34434;DHT22;34290;48.562;13.384;2022-11-21T06:13:34;2.60;99.90
34434;DHT22;34290;48.562;13.384;2022-11-21T06:16:04;2.70;99.90
34434;DHT22;34290;48.562;13.384;2022-11-21T06:18:33;2.80;99.90
34434;DHT22;34290;48.562;13.384;2022-11-21T06:21:01;-1.10;99.90
34434;DHT22;34290;48.562;13.384;2022-11-21T06:23:32;2.70;99.90
34434;DHT22;34290;48.562;13.384;2022-11-21T06:26:03;2.80;99.90
34434;DHT22;34290;48.562;13.384;2022-11-21T06:28:33;2.90;99.90
34434;DHT22;34290;48.562;13.384;2022-11-21T06:31:04;3.00;99.90
34434;DHT22;34290;48.562;13.384;2022-11-21T06:33:31;3.00;99.90
34434;DHT22;34290;48.562;13.384;2022-11-21T06:36:01;3.00;99.90
34434;DHT22;34290;48.562;13.384;2022-11-21T06:43:24;3.30;99.90
34434;DHT22;34290;48.562;13.384;2022-11-21T06:45:54;3.40;99.90
34434;DHT22;34290;48.562;13.384;2022-11-21T06:48:27;3.40;99.90
34434;DHT22;34290;48.562;13.384;2022-11-21T06:50:54;3.50;99.90
34434;DHT22;34290;48.562;13.384;2022-11-21T06:53:21;3.60;99.90
34434;DHT22;34290;48.562;13.384;2022-11-21T06:55:48;3.70;99.90
34434;DHT22;34290;48.562;13.384;2022-11-21T06:58:15;3.80;99.90
34434;DHT22;34290;48.562;13.384;2022-11-21T07:00:43;3.80;99.90
34434;DHT22;34290;48.562;13.384;2022-11-21T07:08:07;3.90;99.90
34434;DHT22;34290;48.562;13.384;2022-11-21T07:10:34;4.00;99.90
34434;DHT22;34290;48.562;13.384;2022-11-21T07:15:48;4.00;99.90
34434;DHT22;34290;48.562;13.384;2022-11-21T07:20:43;3.90;99.90
34434;DHT22;34290;48.562;13.384;2022-11-21T07:25:41;3.90;99.90
34434;DHT22;34290;48.562;13.384;2022-11-21T07:28:09;4.00;99.90
34434;DHT22;34290;48.562;13.384;2022-11-21T07:30:40;3.90;99.90
34434;DHT22;34290;48.562;13.384;2022-11-21T07:33:11;3.90;99.90
34434;DHT22;34290;48.562;13.384;2022-11-21T07:35:38;3.90;99.90
34434;DHT22;34290;48.562;13.384;2022-11-21T07:38:06;3.90;99.90
34434;DHT22;34290;48.562;13.384;2022-11-21T07:40:33;3.90;99.90
34434;DHT22;34290;48.562;13.384;2022-11-21T07:43:01;3.90;99.90
34434;DHT22;34290;48.562;13.384;2022-11-21T07:47:58;4.10;99.90
34434;DHT22;34290;48.562;13.384;2022-11-21T07:50:27;4.20;99.90
34434;DHT22;34290;48.562;13.384;2022-11-21T07:52:58;4.30;99.90
34434;DHT22;34290;48.562;13.384;2022-11-21T07:55:26;4.70;99.90
34434;DHT22;34290;48.562;13.384;2022-11-21T07:57:58;5.00;99.90
34434;DHT22;34290;48.562;13.384;2022-11-21T08:00:25;6.40;99.90
34434;DHT22;34290;48.562;13.384;2022-11-21T08:02:53;7.30;99.90
34434;DHT22;34290;48.562;13.384;2022-11-21T08:05:20;7.80;99.90
34434;DHT22;34290;48.562;13.384;2022-11-21T08:07:49;7.60;99.90
34434;DHT22;34290;48.562;13.384;2022-11-21T08:10:17;7.00;99.90
34434;DHT22;34290;48.562;13.384;2022-11-21T08:15:12;5.70;99.90
34434;DHT22;34290;48.562;13.384;2022-11-21T08:17:39;5.30;99.90
34434;DHT22;34290;48.562;13.384;2022-11-21T08:20:07;5.10;99.90
34434;DHT22;34290;48.562;13.384;2022-11-21T08:22:37;4.90;99.90
34434;DHT22;34290;48.562;13.384;2022-11-21T08:25:08;4.80;99.90
34434;DHT22;34290;48.562;13.384;2022-11-21T08:27:35;4.70;99.90
34434;DHT22;34290;48.562;13.384;2022-11-21T08:30:07;4.70;99.90
34434;DHT22;34290;48.562;13.384;2022-11-21T08:32:35;4.70;99.90
34434;DHT22;34290;48.562;13.384;2022-11-21T08:35:02;4.70;99.90
34434;DHT22;34290;48.562;13.384;2022-11-21T08:37:29;4.70;99.90
34434;DHT22;34290;48.562;13.384;2022-11-21T08:39:56;4.70;99.90
34434;DHT22;34290;48.562;13.384;2022-11-21T08:42:26;4.70;99.90
34434;DHT22;34290;48.562;13.384;2022-11-21T08:44:53;4.80;99.90
34434;DHT22;34290;48.562;13.384;2022-11-21T08:47:21;5.00;99.90
34434;DHT22;34290;48.562;13.384;2022-11-21T08:49:48;5.00;99.90
34434;DHT22;34290;48.562;13.384;2022-11-21T08:52:15;5.20;99.90
34434;DHT22;34290;48.562;13.384;2022-11-21T08:54:42;5.30;99.90
34434;DHT22;34290;48.562;13.384;2022-11-21T08:57:10;5.60;99.90
34434;DHT22;34290;48.562;13.384;2022-11-21T08:59:41;6.10;99.90
34434;DHT22;34290;48.562;13.384;2022-11-21T09:02:09;6.20;99.90
34434;DHT22;34290;48.562;13.384;2022-11-21T09:07:04;6.10;99.90
34434;DHT22;34290;48.562;13.384;2022-11-21T09:12:00;6.00;99.90
34434;DHT22;34290;48.562;13.384;2022-11-21T09:14:27;6.00;99.90
34434;DHT22;34290;48.562;13.384;2022-11-21T09:17:15;5.90;99.90
34434;DHT22;34290;48.562;13.384;2022-11-21T09:24:54;5.90;99.90
34434;DHT22;34290;48.562;13.384;2022-11-21T09:27:21;5.90;99.90
34434;DHT22;34290;48.562;13.384;2022-11-21T09:29:48;5.90;99.90
34434;DHT22;34290;48.562;13.384;2022-11-21T09:32:16;6.00;99.90
34434;DHT22;34290;48.562;13.384;2022-11-21T09:34:43;6.20;99.90
34434;DHT22;34290;48.562;13.384;2022-11-21T09:37:10;6.50;99.90
34434;DHT22;34290;48.562;13.384;2022-11-21T09:39:37;7.80;99.90
34434;DHT22;34290;48.562;13.384;2022-11-21T09:42:29;9.50;99.90
34434;DHT22;34290;48.562;13.384;2022-11-21T09:45:06;11.10;99.90
34434;DHT22;34290;48.562;13.384;2022-11-21T09:47:37;11.60;99.90
34434;DHT22;34290;48.562;13.384;2022-11-21T09:50:25;11.60;99.90
34434;DHT22;34290;48.562;13.384;2022-11-21T09:52:57;10.70;99.90
34434;DHT22;34290;48.562;13.384;2022-11-21T09:55:31;10.00;99.90
34434;DHT22;34290;48.562;13.384;2022-11-21T09:58:03;9.30;99.90
34434;DHT22;34290;48.562;13.384;2022-11-21T10:00:30;9.00;99.90
34434;DHT22;34290;48.562;13.384;2022-11-21T10:03:03;8.40;99.90
34434;DHT22;34290;48.562;13.384;2022-11-21T10:05:35;8.20;99.90
34434;DHT22;34290;48.562;13.384;2022-11-21T10:08:10;8.30;99.90
34434;DHT22;34290;48.562;13.384;2022-11-21T10:10:49;8.40;99.90
34434;DHT22;34290;48.562;13.384;2022-11-21T10:13:27;8.80;99.90
34434;DHT22;34290;48.562;13.384;2022-11-21T10:16:02;8.80;99.90
34434;DHT22;34290;48.562;13.384;2022-11-21T10:18:56;8.60;99.90
34434;DHT22;34290;48.562;13.384;2022-11-21T10:21:40;8.30;99.90
34434;DHT22;34290;48.562;13.384;2022-11-21T10:24:21;7.90;99.90
34434;DHT22;34290;48.562;13.384;2022-11-21T10:26:55;7.80;99.90
34434;DHT22;34290;48.562;13.384;2022-11-21T10:29:25;7.70;99.90
34434;DHT22;34290;48.562;13.384;2022-11-21T10:31:56;7.60;99.90
34434;DHT22;34290;48.562;13.384;2022-11-21T10:34:28;7.50;99.90
34434;DHT22;34290;48.562;13.384;2022-11-21T10:36:59;7.40;99.90
34434;DHT22;34290;48.562;13.384;2022-11-21T10:39:33;7.40;99.90
34434;DHT22;34290;48.562;13.384;2022-11-21T10:42:04;7.10;99.90
34434;DHT22;34290;48.562;13.384;2022-11-21T10:44:36;7.20;99.90
34434;DHT22;34290;48.562;13.384;2022-11-21T10:47:23;7.20;99.90
34434;DHT22;34290;48.562;13.384;2022-11-21T10:49:59;7.30;99.90
34434;DHT22;34290;48.562;13.384;2022-11-21T10:52:30;7.40;99.90
34434;DHT22;34290;48.562;13.384;2022-11-21T10:55:08;7.30;99.90
34434;DHT22;34290;48.562;13.384;2022-11-21T10:57:42;7.40;99.90
34434;DHT22;34290;48.562;13.384;2022-11-21T11:00:19;7.20;99.90
34434;DHT22;34290;48.562;13.384;2022-11-21T11:03:05;7.10;99.90
34434;DHT22;34290;48.562;13.384;2022-11-21T11:05:35;7.00;99.90
34434;DHT22;34290;48.562;13.384;2022-11-21T11:08:05;6.90;99.90
34434;DHT22;34290;48.562;13.384;2022-11-21T11:10:34;6.90;99.90
34434;DHT22;34290;48.562;13.384;2022-11-21T11:15:57;6.80;99.90
34434;DHT22;34290;48.562;13.384;2022-11-21T11:18:26;6.80;99.90
34434;DHT22;34290;48.562;13.384;2022-11-21T11:21:12;6.80;99.90
34434;DHT22;34290;48.562;13.384;2022-11-21T11:23:41;6.90;99.90
34434;DHT22;34290;48.562;13.384;2022-11-21T11:26:20;6.90;99.90
34434;DHT22;34290;48.562;13.384;2022-11-21T11:28:48;6.90;99.90
34434;DHT22;34290;48.562;13.384;2022-11-21T11:31:15;7.10;99.90
34434;DHT22;34290;48.562;13.384;2022-11-21T11:33:50;7.20;99.90
34434;DHT22;34290;48.562;13.384;2022-11-21T11:36:36;7.50;99.90
34434;DHT22;34290;48.562;13.384;2022-11-21T11:39:16;7.80;99.90
34434;DHT22;34290;48.562;13.384;2022-11-21T11:45:15;9.00;99.90
34434;DHT22;34290;48.562;13.384;2022-11-21T11:48:08;9.50;99.90
34434;DHT22;34290;48.562;13.384;2022-11-21T11:50:44;9.80;99.90
34434;DHT22;34290;48.562;13.384;2022-11-21T11:53:17;9.30;99.90
34434;DHT22;34290;48.562;13.384;2022-11-21T11:55:47;9.00;99.90
34434;DHT22;34290;48.562;13.384;2022-11-21T11:58:22;8.70;99.90
34434;DHT22;34290;48.562;13.384;2022-11-21T12:00:55;8.20;99.90
34434;DHT22;34290;48.562;13.384;2022-11-21T12:03:33;7.90;99.90
34434;DHT22;34290;48.562;13.384;2022-11-21T12:06:10;7.70;99.90
34434;DHT22;34290;48.562;13.384;2022-11-21T12:08:45;7.60;99.90
34434;DHT22;34290;48.562;13.384;2022-11-21T12:11:21;7.60;99.90
34434;DHT22;34290;48.562;13.384;2022-11-21T12:14:13;7.60;99.90
34434;DHT22;34290;48.562;13.384;2022-11-21T12:17:05;7.70;99.90
34434;DHT22;34290;48.562;13.384;2022-11-21T12:19:36;7.70;99.90
34434;DHT22;34290;48.562;13.384;2022-11-21T12:22:03;7.70;99.90
34434;DHT22;34290;48.562;13.384;2022-11-21T12:24:38;7.90;99.90
34434;DHT22;34290;48.562;13.384;2022-11-21T12:27:26;7.90;99.90
34434;DHT22;34290;48.562;13.384;2022-11-21T12:30:13;7.70;99.90
34434;DHT22;34290;48.562;13.384;2022-11-21T12:32:54;7.60;99.90
34434;DHT22;34290;48.562;13.384;2022-11-21T12:35:36;7.50;99.90
34434;DHT22;34290;48.562;13.384;2022-11-21T12:38:12;7.40;99.90
34434;DHT22;34290;48.562;13.384;2022-11-21T12:40:47;7.40;99.90
34434;DHT22;34290;48.562;13.384;2022-11-21T12:43:23;7.20;99.90
34434;DHT22;34290;48.562;13.384;2022-11-21T12:46:01;7.10;99.90
34434;DHT22;34290;48.562;13.384;2022-11-21T12:48:39;7.10;99.90
34434;DHT22;34290;48.562;13.384;2022-11-21T12:51:39;7.00;99.90
34434;DHT22;34290;48.562;13.384;2022-11-21T12:57:47;7.30;99.90
34434;DHT22;34290;48.562;13.384;2022-11-21T13:00:22;7.70;99.90
34434;DHT22;34290;48.562;13.384;2022-11-21T13:03:15;8.00;99.90
34434;DHT22;34290;48.562;13.384;2022-11-21T13:05:46;8.00;99.90
34434;DHT22;34290;48.562;13.384;2022-11-21T13:08:17;8.00;99.90
34434;DHT22;34290;48.562;13.384;2022-11-21T13:10:56;7.90;99.90
34434;DHT22;34290;48.562;13.384;2022-11-21T13:13:49;8.00;99.90
34434;DHT22;34290;48.562;13.384;2022-11-21T13:16:19;8.10;99.90
34434;DHT22;34290;48.562;13.384;2022-11-21T13:19:11;8.40;99.90
34434;DHT22;34290;48.562;13.384;2022-11-21T13:21:43;8.50;99.90
34434;DHT22;34290;48.562;13.384;2022-11-21T13:24:10;8.60;99.90
34434;DHT22;34290;48.562;13.384;2022-11-21T13:26:52;8.40;99.90
34434;DHT22;34290;48.562;13.384;2022-11-21T13:29:22;8.20;99.90
34434;DHT22;34290;48.562;13.384;2022-11-21T13:31:49;7.90;99.90
34434;DHT22;34290;48.562;13.384;2022-11-21T13:34:35;7.80;99.90
34434;DHT22;34290;48.562;13.384;2022-11-21T13:37:03;7.70;99.90
34434;DHT22;34290;48.562;13.384;2022-11-21T13:39:37;7.50;99.90
34434;DHT22;34290;48.562;13.384;2022-11-21T13:42:14;7.40;99.90
34434;DHT22;34290;48.562;13.384;2022-11-21T13:45:38;7.30;99.90
34434;DHT22;34290;48.562;13.384;2022-11-21T13:48:37;7.10;99.90
34434;DHT22;34290;48.562;13.384;2022-11-21T13:54:52;6.60;99.90
34434;DHT22;34290;48.562;13.384;2022-11-21T13:57:32;6.50;99.90
34434;DHT22;34290;48.562;13.384;2022-11-21T14:00:28;6.40;99.90
34434;DHT22;34290;48.562;13.384;2022-11-21T14:03:30;6.30;99.90
34434;DHT22;34290;48.562;13.384;2022-11-21T14:06:08;6.40;99.90
34434;DHT22;34290;48.562;13.384;2022-11-21T14:08:39;6.30;99.90
34434;DHT22;34290;48.562;13.384;2022-11-21T14:11:28;6.30;99.90
34434;DHT22;34290;48.562;13.384;2022-11-21T14:13:55;6.30;99.90
34434;DHT22;34290;48.562;13.384;2022-11-21T14:16:29;6.30;99.90
34434;DHT22;34290;48.562;13.384;2022-11-21T14:18:57;6.20;99.90
34434;DHT22;34290;48.562;13.384;2022-11-21T14:21:26;6.20;99.90
34434;DHT22;34290;48.562;13.384;2022-11-21T14:23:56;6.00;99.90
34434;DHT22;34290;48.562;13.384;2022-11-21T14:26:23;5.90;99.90
34434;DHT22;34290;48.562;13.384;2022-11-21T14:28:51;5.90;99.90
34434;DHT22;34290;48.562;13.384;2022-11-21T14:31:20;5.90;99.90
34434;DHT22;34290;48.562;13.384;2022-11-21T14:33:55;5.70;99.90
34434;DHT22;34290;48.562;13.384;2022-11-21T14:36:25;5.60;99.90
34434;DHT22;34290;48.562;13.384;2022-11-21T14:38:55;5.50;99.90
34434;DHT22;34290;48.562;13.384;2022-11-21T14:41:29;5.40;99.90
34434;DHT22;34290;48.562;13.384;2022-11-21T14:44:17;5.20;99.90
34434;DHT22;34290;48.562;13.384;2022-11-21T14:46:45;5.10;99.90
34434;DHT22;34290;48.562;13.384;2022-11-21T14:49:20;5.00;99.90
34434;DHT22;34290;48.562;13.384;2022-11-21T14:51:49;4.80;99.90
34434;DHT22;34290;48.562;13.384;2022-11-21T14:54:18;4.60;99.90
34434;DHT22;34290;48.562;13.384;2022-11-21T14:56:47;4.60;99.90
34434;DHT22;34290;48.562;13.384;2022-11-21T14:59:21;4.60;99.90
34434;DHT22;34290;48.562;13.384;2022-11-21T15:01:58;4.60;99.90
34434;DHT22;34290;48.562;13.384;2022-11-21T15:04:29;4.70;99.90
34434;DHT22;34290;48.562;13.384;2022-11-21T15:06:59;4.70;99.90
34434;DHT22;34290;48.562;13.384;2022-11-21T15:09:27;4.70;99.90
34434;DHT22;34290;48.562;13.384;2022-11-21T15:11:58;4.70;99.90
34434;DHT22;34290;48.562;13.384;2022-11-21T15:14:29;4.60;99.90
34434;DHT22;34290;48.562;13.384;2022-11-21T15:17:00;4.60;99.90
34434;DHT22;34290;48.562;13.384;2022-11-21T15:19:31;4.60;99.90
34434;DHT22;34290;48.562;13.384;2022-11-21T15:22:00;4.40;99.90
34434;DHT22;34290;48.562;13.384;2022-11-21T15:24:37;4.20;99.90
34434;DHT22;34290;48.562;13.384;2022-11-21T15:27:29;4.10;99.90
34434;DHT22;34290;48.562;13.384;2022-11-21T15:30:02;4.10;99.90
34434;DHT22;34290;48.562;13.384;2022-11-21T15:32:29;4.10;99.90
34434;DHT22;34290;48.562;13.384;2022-11-21T15:34:58;4.00;99.90
34434;DHT22;34290;48.562;13.384;2022-11-21T15:37:28;3.90;99.90
34434;DHT22;34290;48.562;13.384;2022-11-21T15:42:34;3.80;99.90
34434;DHT22;34290;48.562;13.384;2022-11-21T15:45:18;3.70;99.90
34434;DHT22;34290;48.562;13.384;2022-11-21T15:47:47;3.60;99.90
34434;DHT22;34290;48.562;13.384;2022-11-21T15:50:16;3.50;99.90
34434;DHT22;34290;48.562;13.384;2022-11-21T15:52:43;3.40;99.90
34434;DHT22;34290;48.562;13.384;2022-11-21T15:55:15;3.30;99.90
34434;DHT22;34290;48.562;13.384;2022-11-21T15:57:42;3.20;99.90
34434;DHT22;34290;48.562;13.384;2022-11-21T16:00:10;3.10;99.90
34434;DHT22;34290;48.562;13.384;2022-11-21T16:02:38;3.00;99.90
34434;DHT22;34290;48.562;13.384;2022-11-21T16:05:05;2.90;99.90
34434;DHT22;34290;48.562;13.384;2022-11-21T16:07:35;2.80;99.90
34434;DHT22;34290;48.562;13.384;2022-11-21T16:10:03;2.70;99.90
34434;DHT22;34290;48.562;13.384;2022-11-21T16:12:30;2.60;99.90
34434;DHT22;34290;48.562;13.384;2022-11-21T16:17:24;2.40;99.90
34434;DHT22;34290;48.562;13.384;2022-11-21T16:19:51;2.40;99.90
34434;DHT22;34290;48.562;13.384;2022-11-21T16:24:47;2.50;99.90
34434;DHT22;34290;48.562;13.384;2022-11-21T16:27:14;2.60;99.90
34434;DHT22;34290;48.562;13.384;2022-11-21T16:29:41;2.50;99.90
34434;DHT22;34290;48.562;13.384;2022-11-21T16:34:36;2.20;99.90
34434;DHT22;34290;48.562;13.384;2022-11-21T16:37:03;2.10;99.90
34434;DHT22;34290;48.562;13.384;2022-11-21T16:39:30;2.20;99.90
34434;DHT22;34290;48.562;13.384;2022-11-21T16:41:58;2.20;99.90
34434;DHT22;34290;48.562;13.384;2022-11-21T16:44:28;2.20;99.90
34434;DHT22;34290;48.562;13.384;2022-11-21T16:46:56;2.10;99.90
34434;DHT22;34290;48.562;13.384;2022-11-21T16:51:50;1.90;99.90
34434;DHT22;34290;48.562;13.384;2022-11-21T16:59:13;1.80;99.90
34434;DHT22;34290;48.562;13.384;2022-11-21T17:01:42;1.70;99.90
34434;DHT22;34290;48.562;13.384;2022-11-21T17:11:31;1.50;99.90
34434;DHT22;34290;48.562;13.384;2022-11-21T17:16:29;1.50;99.90
34434;DHT22;34290;48.562;13.384;2022-11-21T17:18:58;1.60;99.90
34434;DHT22;34290;48.562;13.384;2022-11-21T17:21:26;1.70;99.90
34434;DHT22;34290;48.562;13.384;2022-11-21T17:23:54;1.60;99.90
34434;DHT22;34290;48.562;13.384;2022-11-21T17:28:53;1.60;99.90
34434;DHT22;34290;48.562;13.384;2022-11-21T17:31:21;1.40;99.90
34434;DHT22;34290;48.562;13.384;2022-11-21T17:33:50;1.20;99.90
34434;DHT22;34290;48.562;13.384;2022-11-21T17:36:21;1.00;99.90
34434;DHT22;34290;48.562;13.384;2022-11-21T17:38:54;1.00;99.90
34434;DHT22;34290;48.562;13.384;2022-11-21T17:41:23;0.80;99.90
34434;DHT22;34290;48.562;13.384;2022-11-21T17:43:53;0.70;99.90
34434;DHT22;34290;48.562;13.384;2022-11-21T17:46:25;0.60;99.90
34434;DHT22;34290;48.562;13.384;2022-11-21T17:48:59;0.50;99.90